Terminal Aerodrome Forecast
Issued by NWS Omaha/Valley, NE

Home | Current Version | Previous Version | Graphics & Text | Print | Product List | Glossary On
Versions: 1 2 3 4 5 6 7 8 9 10 11 12 13 14 15 16 17 18 19 20 21 22 23 24 25 26 27 28 29 30 31 32 33 34 35 36
000
FTUS43 KOAX 160433 AAB
TAFOFK
TAF AMD
KOFK 160433Z 1605/1624 12005KT 6SM BR OVC008
      TEMPO 1605/1608 4SM -FZRAPL OVC005
     FM160800 VRB04KT 6SM -FZRA OVC005
      TEMPO 1609/1613 3SM -PL OVC003
     FM161600 02010KT 3SM -FZRAPL OVC007
     FM162100 35012KT 3/4SM -SN OVC009=

USA.gov is the U.S. government's official web portal to all federal, state and local government web resources and services.